رشيد, مصر

07:10 AM EET on وèلهبر 27, 2014 (GMT +0200)
Alexandria International | Change Station
CLOSE
Current Station
Airport
Location: Alexandria,
Elevation: 23 ft
Nearby Weather Stations

Elev 23 ft 31.18 °N, 29.95 °E | Updated 1 hour ago

Scattered Clouds
غيوم متفرقة
64 °F
Feels Like 64 °F
N
16
ريح متغير ريح from NNW

هذا اليوم
High -- | Low -- °F
--% Chance of Precip.
Yesterday
High -- | Low -- °F
Precip. -- في
6:36 AM 4:55 PM
الهلال الأول, 26% visible
الضغط 30.06 في
وضوح الرؤية 6.2 أميال
سحابات غيوم متفرقة 2000 ft
نقطة الندى 48 °F
الرطوبة 56%
Rainfall 0.00 في
عمق الثلج Not available.
الأشعة فوق البنفسجية 0 out of 12
Pollen Not available.
جودة الهواء Not available.
Flu Activity Not available.
METAR HEAX 270400Z 34014KT 9999 SCT020 18/09 Q1018 NOSIG

More Conditions Fewer Conditions

الضغط 30.06 في
وضوح الرؤية 6.2 أميال
سحابات غيوم متفرقة 2000 ft
نقطة الندى 48 °F
الرطوبة 56%
Rainfall 0.00 في
عمق الثلج Not available.
الأشعة فوق البنفسجية 0 out of 12
Pollen Not available.
جودة الهواء Not available.
Flu Activity Not available.
METAR HEAX 270400Z 34014KT 9999 SCT020 18/09 Q1018 NOSIG

More Conditions Fewer Conditions

10-Day Weather Forecast

Almanac

علم الفلك

Nov. 27, 2014 Rise Set
Actual Time
Civil Twilight
Nautical Twilight
Astronomical Twilight
قمر
Length Of Visible Light
طول الیوم
Tomorrow will be .
, % of the Moon is Illuminated

Today's Extremes

Country Highs Country Lows

Community

WunderPhotos

Upload Photos

1,773,959 photos uploaded!

WunderBlogs® & News

Nearby

جودة الهواء

  جودة الهواء AQ Index Pollutant
Not available.

عمق الثلج

Station Depth Elevation

Earthquake Activity

City Distance Mag. Time & Date
Minimum magnitude displayed is 2.5.

Coastal Water Temperatures

مكان درجات الحرارة

Nearby Weather Stations